createdAt,value
2022-12-23T00:00:40.996Z,5.13
2022-12-23T00:03:08.292Z,5.77
2022-12-23T00:05:41.306Z,5.73
2022-12-23T00:08:08.758Z,6.47
2022-12-23T00:10:39.750Z,6.90
2022-12-23T00:13:30.947Z,6.67
2022-12-23T00:16:14.775Z,6.60
2022-12-23T00:18:42.742Z,6.80
2022-12-23T00:21:15.711Z,6.53
2022-12-23T00:23:45.177Z,6.47
2022-12-23T00:26:30.359Z,7.27
2022-12-23T00:28:58.766Z,6.67
2022-12-23T00:31:26.344Z,6.97
2022-12-23T00:33:54.490Z,7.07
2022-12-23T00:36:27.719Z,7.03
2022-12-23T00:39:15.692Z,6.60
2022-12-23T00:42:01.287Z,6.80
2022-12-23T00:44:28.491Z,6.30
2022-12-23T00:46:55.697Z,6.17
2022-12-23T00:49:41.531Z,6.10
2022-12-23T00:52:11.135Z,5.70
2022-12-23T00:54:38.529Z,6.57
2022-12-23T00:57:05.998Z,5.63
2022-12-23T00:59:34.137Z,6.20
2022-12-23T01:02:20.435Z,6.63
2022-12-23T01:05:06.052Z,5.37
2022-12-23T01:07:33.187Z,5.70
2022-12-23T01:10:00.331Z,6.10
2022-12-23T01:12:27.699Z,5.70
2022-12-23T01:14:54.898Z,5.80
2022-12-23T01:17:22.153Z,5.27
2022-12-23T01:19:49.465Z,5.00
2022-12-23T01:22:16.617Z,5.33
2022-12-23T01:24:43.797Z,9.40
2022-12-23T01:27:10.915Z,5.77
2022-12-23T01:29:38.006Z,6.77
2022-12-23T01:32:05.568Z,5.87
2022-12-23T01:34:36.785Z,6.20
2022-12-23T01:37:05.323Z,6.40
2022-12-23T01:39:32.549Z,6.67
2022-12-23T01:42:18.033Z,6.63
2022-12-23T01:45:02.859Z,6.33
2022-12-23T01:47:57.795Z,6.70
2022-12-23T01:50:51.812Z,6.97
2022-12-23T01:53:26.772Z,6.17
2022-12-23T01:56:08.033Z,6.60
2022-12-23T01:58:47.883Z,6.27
2022-12-23T02:01:33.824Z,5.67
2022-12-23T02:04:13.687Z,5.57
2022-12-23T02:07:01.044Z,5.60
2022-12-23T02:09:34.000Z,5.20
2022-12-23T02:12:30.118Z,4.80
2022-12-23T02:15:30.671Z,4.60
2022-12-23T02:18:13.888Z,4.23
2022-12-23T02:21:02.786Z,2.93
2022-12-23T02:24:01.140Z,2.70
2022-12-23T02:27:01.797Z,1.93
2022-12-23T02:30:06.411Z,1.90
2022-12-23T02:32:56.031Z,1.70
2022-12-23T02:35:35.167Z,1.60
2022-12-23T02:38:20.909Z,1.40
2022-12-23T02:41:13.960Z,1.70
2022-12-23T02:43:50.867Z,1.20
2022-12-23T02:46:27.955Z,0.70
2022-12-23T02:49:08.519Z,0.40
2022-12-23T02:51:41.341Z,0.30
2022-12-23T02:54:13.239Z,0.40
2022-12-23T02:56:45.180Z,0.20
2022-12-23T02:59:20.564Z,0.40
2022-12-23T03:01:49.263Z,0.20
2022-12-23T03:04:16.654Z,0.20
2022-12-23T03:06:51.653Z,0.10
2022-12-23T03:09:39.056Z,0.20
2022-12-23T03:12:19.430Z,0.20
2022-12-23T03:14:52.413Z,0.10
2022-12-23T03:17:53.676Z,0.10
2022-12-23T03:20:37.901Z,0.10
2022-12-23T03:23:11.179Z,0.07
2022-12-23T03:25:53.996Z,0.10
2022-12-23T03:28:34.235Z,0.10
2022-12-23T03:31:03.955Z,0.00
2022-12-23T03:33:37.424Z,0.10
2022-12-23T03:36:15.127Z,0.10
2022-12-23T03:38:45.368Z,0.10
2022-12-23T03:41:19.064Z,0.10
2022-12-23T03:43:58.527Z,0.10
2022-12-23T03:46:54.052Z,0.10
2022-12-23T03:49:29.246Z,0.00
2022-12-23T03:52:01.656Z,0.10
2022-12-23T03:54:36.571Z,0.10
2022-12-23T03:57:06.144Z,0.10
2022-12-23T03:59:41.325Z,0.10
2022-12-23T04:02:19.690Z,0.10
2022-12-23T04:05:09.937Z,0.10
2022-12-23T04:07:46.453Z,0.10
2022-12-23T04:10:14.782Z,0.10
2022-12-23T04:12:42.055Z,0.00
2022-12-23T04:15:13.166Z,0.10
2022-12-23T04:17:40.762Z,0.10
2022-12-23T04:20:08.589Z,0.20
2022-12-23T04:22:35.757Z,0.10
2022-12-23T04:25:03.270Z,0.20
2022-12-23T04:27:30.394Z,0.10
2022-12-23T04:29:57.539Z,0.13
2022-12-23T04:32:24.684Z,0.10
2022-12-23T04:34:51.952Z,0.10
2022-12-23T04:37:19.120Z,0.20
2022-12-23T04:39:46.198Z,0.10
2022-12-23T04:42:13.325Z,0.10
2022-12-23T04:44:40.449Z,0.10
2022-12-23T04:47:07.784Z,0.10
2022-12-23T04:49:35.002Z,0.10
2022-12-23T04:52:02.222Z,0.20
2022-12-23T04:54:29.405Z,0.13
2022-12-23T04:56:56.649Z,0.10
2022-12-23T04:59:23.740Z,0.10
2022-12-23T05:01:51.072Z,0.10
2022-12-23T05:04:18.349Z,0.10
2022-12-23T05:06:45.631Z,0.20
2022-12-23T05:09:12.846Z,0.13
2022-12-23T05:11:42.295Z,0.23
2022-12-23T05:14:12.945Z,0.30
2022-12-23T05:16:40.490Z,0.10
2022-12-23T05:19:07.988Z,0.20
2022-12-23T05:21:35.229Z,0.10
2022-12-23T05:24:02.595Z,0.10
2022-12-23T05:26:29.821Z,0.20
2022-12-23T05:28:56.978Z,0.10
2022-12-23T05:31:24.121Z,0.10
2022-12-23T05:33:51.372Z,0.10
2022-12-23T05:36:18.589Z,0.20
2022-12-23T05:38:45.751Z,0.13
2022-12-23T05:41:12.854Z,0.17
2022-12-23T05:43:40.020Z,0.10
2022-12-23T05:46:07.150Z,0.20
2022-12-23T05:48:34.293Z,0.20
2022-12-23T05:51:01.507Z,0.17
2022-12-23T05:53:28.601Z,0.30
2022-12-23T05:55:55.779Z,0.20
2022-12-23T05:58:23.006Z,0.20
2022-12-23T06:00:50.269Z,0.10
2022-12-23T06:03:17.661Z,0.10
2022-12-23T06:05:45.090Z,0.20
2022-12-23T06:08:12.273Z,0.20
2022-12-23T06:10:39.332Z,0.20
2022-12-23T06:13:06.551Z,0.20
2022-12-23T06:15:33.833Z,0.17
2022-12-23T06:18:00.970Z,0.10
2022-12-23T06:20:28.100Z,0.20
2022-12-23T06:22:55.202Z,0.20
2022-12-23T06:25:22.518Z,0.20
2022-12-23T06:27:49.770Z,0.20
2022-12-23T06:30:16.950Z,0.10
2022-12-23T06:32:44.171Z,0.20
2022-12-23T06:35:11.457Z,0.20
2022-12-23T06:37:38.702Z,0.20
2022-12-23T06:40:06.595Z,0.20
2022-12-23T06:42:33.804Z,0.30
2022-12-23T06:45:00.958Z,0.17
2022-12-23T06:47:28.021Z,0.30
2022-12-23T06:49:55.127Z,0.20
2022-12-23T06:52:23.187Z,0.20
2022-12-23T06:54:50.485Z,0.20
2022-12-23T06:57:17.762Z,0.20
2022-12-23T06:59:44.946Z,0.20
2022-12-23T07:02:12.614Z,0.23
2022-12-23T07:04:39.934Z,0.30
2022-12-23T07:07:07.078Z,0.30
2022-12-23T07:09:34.166Z,0.30
2022-12-23T07:12:03.628Z,0.30
2022-12-23T07:14:30.844Z,0.30
2022-12-23T07:16:58.176Z,0.30
2022-12-23T07:19:25.593Z,0.20
2022-12-23T07:21:52.715Z,0.30
2022-12-23T07:24:19.832Z,0.20
2022-12-23T07:26:46.975Z,0.30
2022-12-23T07:29:14.179Z,4.83
2022-12-23T07:31:41.620Z,1.33
2022-12-23T07:34:09.760Z,0.30
2022-12-23T07:36:36.937Z,0.40
2022-12-23T07:39:04.404Z,0.30
2022-12-23T07:41:31.779Z,0.73
2022-12-23T07:43:58.935Z,0.20
2022-12-23T07:46:26.254Z,0.40
2022-12-23T07:48:53.484Z,0.37
2022-12-23T07:51:20.571Z,0.30
2022-12-23T07:53:51.380Z,0.20
2022-12-23T07:56:19.113Z,0.30
2022-12-23T07:58:53.252Z,0.20
2022-12-23T08:01:21.120Z,0.20
2022-12-23T08:03:49.153Z,0.30
2022-12-23T08:06:17.399Z,0.30
2022-12-23T08:08:46.429Z,0.23
2022-12-23T08:11:15.038Z,0.40
2022-12-23T08:13:44.488Z,0.20
2022-12-23T08:16:12.278Z,0.20
2022-12-23T08:18:41.642Z,0.20
2022-12-23T08:21:15.441Z,0.20
2022-12-23T08:23:43.733Z,0.40
2022-12-23T08:26:19.894Z,0.20
2022-12-23T08:28:48.238Z,0.30
2022-12-23T08:31:20.007Z,0.30
2022-12-23T08:33:49.600Z,0.27
2022-12-23T08:36:25.494Z,0.20
2022-12-23T08:38:54.907Z,0.20
2022-12-23T08:41:25.167Z,0.20
2022-12-23T08:43:52.980Z,0.20
2022-12-23T08:46:20.732Z,0.33
2022-12-23T08:48:49.807Z,0.27
2022-12-23T08:51:19.049Z,0.20
2022-12-23T08:53:46.777Z,0.30
2022-12-23T08:56:17.110Z,0.30
2022-12-23T08:58:45.982Z,0.40
2022-12-23T09:01:15.532Z,0.20
2022-12-23T09:03:43.685Z,0.27
2022-12-23T09:06:14.005Z,0.30
2022-12-23T09:08:41.838Z,0.30
2022-12-23T09:11:11.221Z,0.20
2022-12-23T09:13:38.549Z,0.33
2022-12-23T09:16:06.844Z,0.33
2022-12-23T09:18:34.670Z,0.30
2022-12-23T09:21:03.984Z,0.40
2022-12-23T09:23:31.558Z,0.30
2022-12-23T09:25:59.514Z,0.20
2022-12-23T09:28:27.459Z,0.40
2022-12-23T09:30:54.727Z,0.47
2022-12-23T09:33:21.924Z,0.40
2022-12-23T09:35:49.591Z,0.60
2022-12-23T09:38:17.083Z,0.50
2022-12-23T09:40:46.234Z,0.70
2022-12-23T09:43:21.271Z,0.80
2022-12-23T09:46:09.890Z,0.80
2022-12-23T09:48:45.614Z,0.70
2022-12-23T09:51:13.845Z,0.70
2022-12-23T09:53:45.230Z,0.87
2022-12-23T09:56:38.574Z,1.00
2022-12-23T09:59:16.414Z,0.70
2022-12-23T10:02:09.802Z,0.90
2022-12-23T10:04:52.615Z,0.70
2022-12-23T10:07:34.194Z,0.70
2022-12-23T10:10:13.733Z,0.80
2022-12-23T10:12:50.326Z,0.80
2022-12-23T10:15:39.438Z,0.70
2022-12-23T10:18:36.158Z,0.70
2022-12-23T10:21:37.344Z,0.90
2022-12-23T10:24:15.092Z,0.70
2022-12-23T10:26:50.325Z,0.70
2022-12-23T10:29:25.817Z,0.73
2022-12-23T10:32:04.551Z,0.70
2022-12-23T10:34:40.653Z,0.67
2022-12-23T10:37:44.765Z,0.60
2022-12-23T10:40:29.593Z,0.80
2022-12-23T10:43:24.882Z,1.00
2022-12-23T10:46:29.969Z,0.60
2022-12-23T10:49:18.532Z,0.90
2022-12-23T10:51:57.751Z,0.60
2022-12-23T10:54:30.858Z,0.50
2022-12-23T10:56:58.365Z,0.70
2022-12-23T10:59:30.734Z,0.70
2022-12-23T11:02:13.139Z,0.70
2022-12-23T11:04:46.114Z,0.80
2022-12-23T11:07:43.623Z,0.70
2022-12-23T11:10:13.284Z,0.50
2022-12-23T11:12:43.586Z,0.80
2022-12-23T11:15:35.528Z,0.80
2022-12-23T11:18:13.460Z,0.80
2022-12-23T11:20:42.852Z,0.60
2022-12-23T11:23:36.733Z,0.73
2022-12-23T11:26:10.028Z,0.70
2022-12-23T11:28:47.145Z,0.90
2022-12-23T11:31:17.158Z,0.80
2022-12-23T11:33:58.275Z,1.00
2022-12-23T11:36:28.180Z,0.77
2022-12-23T11:39:04.630Z,0.90
2022-12-23T11:41:44.743Z,0.90
2022-12-23T11:44:28.154Z,1.10
2022-12-23T11:46:55.438Z,0.97
2022-12-23T11:49:25.993Z,0.97
2022-12-23T11:52:02.409Z,0.93
2022-12-23T11:54:29.755Z,0.93
2022-12-23T11:56:57.820Z,0.93
2022-12-23T11:59:30.815Z,1.13
2022-12-23T12:02:19.553Z,1.30
2022-12-23T12:04:57.728Z,0.87
2022-12-23T12:07:26.300Z,1.03
2022-12-23T12:09:58.688Z,1.13
2022-12-23T12:12:27.705Z,1.17
2022-12-23T12:14:57.568Z,1.00
2022-12-23T12:17:44.614Z,1.10
2022-12-23T12:20:41.714Z,1.07
2022-12-23T12:23:26.877Z,1.13
2022-12-23T12:26:02.099Z,1.20
2022-12-23T12:28:40.329Z,1.13
2022-12-23T12:31:24.092Z,0.90
2022-12-23T12:33:57.470Z,1.13
2022-12-23T12:37:16.803Z,1.27
2022-12-23T12:40:00.731Z,0.90
2022-12-23T12:42:35.399Z,1.23
2022-12-23T12:45:33.747Z,1.10
2022-12-23T12:48:28.816Z,1.00
2022-12-23T12:51:04.542Z,1.00
2022-12-23T12:53:33.885Z,1.13
2022-12-23T12:56:12.442Z,1.30
2022-12-23T12:58:41.161Z,1.23
2022-12-23T13:01:25.869Z,1.30
2022-12-23T13:04:22.063Z,1.17
2022-12-23T13:07:18.725Z,1.20
2022-12-23T13:10:24.904Z,1.23
2022-12-23T13:13:04.074Z,1.40
2022-12-23T13:15:44.873Z,1.13
2022-12-23T13:18:30.472Z,1.33
2022-12-23T13:21:00.702Z,1.27
2022-12-23T13:23:52.358Z,0.93
2022-12-23T13:26:30.954Z,1.23
2022-12-23T13:29:03.887Z,1.23
2022-12-23T13:31:47.711Z,1.17
2022-12-23T13:34:20.810Z,1.17
2022-12-23T13:37:22.011Z,1.10
2022-12-23T13:40:30.289Z,1.23
2022-12-23T13:43:05.039Z,1.40
2022-12-23T13:45:38.271Z,1.40
2022-12-23T13:48:27.077Z,1.17
2022-12-23T13:51:11.888Z,1.30
2022-12-23T13:54:02.284Z,1.00
2022-12-23T13:56:57.883Z,1.00
2022-12-23T13:59:38.789Z,1.20
2022-12-23T14:02:38.095Z,1.10
2022-12-23T14:05:26.491Z,0.80
2022-12-23T14:07:55.031Z,1.10
2022-12-23T14:10:24.440Z,1.10
2022-12-23T14:12:53.238Z,1.10
2022-12-23T14:15:58.138Z,1.00
2022-12-23T14:18:28.389Z,0.93
2022-12-23T14:21:19.589Z,0.90
2022-12-23T14:24:15.392Z,1.10
2022-12-23T14:27:19.998Z,1.20
2022-12-23T14:29:50.458Z,1.10
2022-12-23T14:32:27.008Z,1.30
2022-12-23T14:35:12.714Z,1.20
2022-12-23T14:37:40.630Z,0.90
2022-12-23T14:40:39.642Z,1.20
2022-12-23T14:43:27.257Z,1.30
2022-12-23T14:46:00.100Z,1.00
2022-12-23T14:48:37.127Z,1.20
2022-12-23T14:51:10.183Z,1.60
2022-12-23T14:53:57.169Z,1.60
2022-12-23T14:56:30.091Z,1.13
2022-12-23T14:59:06.019Z,1.60
2022-12-23T15:01:43.679Z,1.20
2022-12-23T15:04:14.001Z,1.20
2022-12-23T15:06:47.694Z,1.70
2022-12-23T15:09:28.275Z,1.40
2022-12-23T15:11:58.780Z,1.30
2022-12-23T15:14:34.529Z,1.43
2022-12-23T15:17:15.979Z,1.40
2022-12-23T15:19:48.200Z,1.57
2022-12-23T15:22:22.632Z,1.73
2022-12-23T15:24:52.681Z,1.80
2022-12-23T15:27:29.585Z,2.00
2022-12-23T15:29:57.775Z,1.47
2022-12-23T15:32:26.357Z,1.80
2022-12-23T15:35:01.556Z,1.83
2022-12-23T15:37:30.964Z,2.10
2022-12-23T15:40:07.886Z,1.90
2022-12-23T15:42:39.017Z,2.00
2022-12-23T15:45:36.078Z,1.97
2022-12-23T15:48:05.608Z,1.80
2022-12-23T15:50:41.938Z,2.00
2022-12-23T15:53:10.317Z,1.53
2022-12-23T15:55:41.428Z,1.50
2022-12-23T15:58:14.929Z,1.60
2022-12-23T16:00:51.779Z,1.70
2022-12-23T16:03:44.265Z,1.60
2022-12-23T16:06:36.535Z,1.63
2022-12-23T16:09:25.756Z,1.80
2022-12-23T16:12:18.828Z,1.50
2022-12-23T16:15:01.032Z,1.87
2022-12-23T16:17:36.700Z,1.83
2022-12-23T16:20:26.611Z,1.50
2022-12-23T16:22:56.677Z,1.77
2022-12-23T16:25:31.777Z,1.83
2022-12-23T16:28:04.022Z,1.90
2022-12-23T16:30:33.262Z,2.10
2022-12-23T16:33:07.029Z,1.70
2022-12-23T16:35:34.139Z,1.67
2022-12-23T16:38:15.603Z,1.60
2022-12-23T16:40:44.436Z,1.40
2022-12-23T16:43:11.991Z,1.60
2022-12-23T16:45:40.102Z,1.93
2022-12-23T16:48:23.885Z,1.77
2022-12-23T16:50:53.407Z,1.67
2022-12-23T16:53:20.596Z,1.90
2022-12-23T16:55:53.752Z,2.40
2022-12-23T16:58:24.123Z,2.10
2022-12-23T17:00:51.877Z,2.40
2022-12-23T17:03:20.447Z,2.03
2022-12-23T17:05:48.300Z,1.97
2022-12-23T17:08:15.834Z,2.13
2022-12-23T17:10:44.806Z,1.83
2022-12-23T17:13:14.228Z,1.70
2022-12-23T17:15:41.511Z,2.03
2022-12-23T17:18:17.661Z,1.80
2022-12-23T17:20:46.505Z,1.83
2022-12-23T17:23:40.075Z,1.70
2022-12-23T17:26:07.312Z,1.63
2022-12-23T17:28:34.480Z,1.83
2022-12-23T17:31:01.847Z,1.60
2022-12-23T17:33:32.098Z,1.70
2022-12-23T17:35:59.787Z,1.80
2022-12-23T17:38:30.184Z,1.97
2022-12-23T17:41:01.051Z,2.13
2022-12-23T17:43:28.280Z,1.97
2022-12-23T17:45:55.692Z,2.00
2022-12-23T17:48:27.988Z,2.03
2022-12-23T17:50:58.415Z,1.80
2022-12-23T17:53:25.603Z,1.80
2022-12-23T17:55:53.098Z,1.70
2022-12-23T17:58:20.213Z,1.67
2022-12-23T18:00:47.331Z,1.50
2022-12-23T18:03:23.694Z,1.40
2022-12-23T18:05:57.259Z,1.40
2022-12-23T18:08:28.149Z,1.80
2022-12-23T18:10:55.597Z,1.77
2022-12-23T18:13:22.745Z,1.53
2022-12-23T18:15:50.592Z,1.60
2022-12-23T18:18:31.226Z,1.83
2022-12-23T18:21:02.708Z,1.90
2022-12-23T18:23:31.958Z,1.83
2022-12-23T18:25:59.938Z,1.40
2022-12-23T18:28:27.522Z,1.80
2022-12-23T18:30:58.238Z,1.90
2022-12-23T18:33:28.877Z,2.10
2022-12-23T18:35:56.819Z,1.97
2022-12-23T18:38:24.125Z,2.27
2022-12-23T18:40:54.048Z,1.70
2022-12-23T18:43:23.639Z,1.77
2022-12-23T18:45:53.505Z,1.57
2022-12-23T18:48:21.612Z,1.77
2022-12-23T18:50:48.926Z,2.07
2022-12-23T18:53:23.934Z,1.93
2022-12-23T18:55:53.380Z,1.70
2022-12-23T18:58:21.007Z,1.77
2022-12-23T19:00:50.161Z,2.13
2022-12-23T19:03:26.126Z,1.70
2022-12-23T19:05:54.837Z,1.87
2022-12-23T19:08:27.238Z,1.97
2022-12-23T19:10:55.902Z,1.50
2022-12-23T19:13:23.555Z,1.53
2022-12-23T19:15:51.067Z,1.70
2022-12-23T19:18:20.650Z,1.70
2022-12-23T19:20:48.857Z,1.73
2022-12-23T19:23:16.691Z,2.00
2022-12-23T19:25:52.558Z,1.40
2022-12-23T19:28:22.495Z,1.73
2022-12-23T19:30:49.820Z,2.10
2022-12-23T19:33:17.166Z,2.20
2022-12-23T19:35:44.645Z,2.90
2022-12-23T19:38:12.429Z,2.77
2022-12-23T19:40:40.764Z,2.73
2022-12-23T19:43:07.906Z,2.70
2022-12-23T19:45:34.992Z,2.33
2022-12-23T19:48:02.238Z,1.83
2022-12-23T19:50:29.524Z,2.37
2022-12-23T19:52:56.988Z,2.00
2022-12-23T19:55:24.288Z,2.77
2022-12-23T19:57:52.382Z,2.23
2022-12-23T20:00:19.659Z,2.00
2022-12-23T20:02:46.835Z,2.67
2022-12-23T20:05:14.352Z,2.60
2022-12-23T20:07:41.645Z,2.27
2022-12-23T20:10:09.288Z,2.80
2022-12-23T20:12:36.431Z,2.67
2022-12-23T20:15:04.114Z,2.53
2022-12-23T20:17:31.209Z,2.70
2022-12-23T20:19:58.354Z,2.13
2022-12-23T20:22:25.492Z,2.50
2022-12-23T20:24:52.648Z,2.70
2022-12-23T20:27:26.000Z,2.10
2022-12-23T20:29:55.135Z,2.20
2022-12-23T20:32:22.266Z,2.03
2022-12-23T20:34:50.308Z,2.13
2022-12-23T20:37:17.753Z,2.27
2022-12-23T20:39:44.916Z,2.00
2022-12-23T20:42:12.037Z,2.03
2022-12-23T20:44:39.161Z,2.40
2022-12-23T20:47:06.552Z,2.00
2022-12-23T20:49:33.954Z,2.03
2022-12-23T20:52:01.256Z,2.13
2022-12-23T20:54:33.317Z,2.47
2022-12-23T20:57:02.153Z,2.47
2022-12-23T20:59:29.453Z,2.30
2022-12-23T21:01:59.259Z,2.00
2022-12-23T21:04:26.991Z,1.90
2022-12-23T21:06:54.273Z,2.20
2022-12-23T21:09:21.411Z,1.90
2022-12-23T21:11:48.741Z,2.13
2022-12-23T21:14:16.364Z,2.20
2022-12-23T21:16:43.778Z,2.03
2022-12-23T21:19:20.611Z,2.13
2022-12-23T21:21:48.841Z,1.97
2022-12-23T21:24:16.662Z,2.20
2022-12-23T21:26:50.273Z,2.20
2022-12-23T21:29:19.238Z,2.10
2022-12-23T21:31:46.548Z,2.03
2022-12-23T21:34:16.361Z,2.03
2022-12-23T21:36:43.926Z,2.07
2022-12-23T21:39:15.250Z,1.90
2022-12-23T21:41:42.716Z,1.80
2022-12-23T21:44:13.690Z,1.80
2022-12-23T21:46:40.990Z,1.53
2022-12-23T21:49:08.172Z,1.70
2022-12-23T21:51:40.268Z,1.80
2022-12-23T21:54:09.553Z,1.83
2022-12-23T21:56:37.180Z,1.67
2022-12-23T21:59:07.284Z,1.90
2022-12-23T22:01:35.277Z,1.37
2022-12-23T22:04:03.419Z,1.90
2022-12-23T22:06:33.225Z,1.90
2022-12-23T22:09:00.642Z,1.70
2022-12-23T22:11:30.298Z,1.50
2022-12-23T22:13:59.193Z,2.00
2022-12-23T22:16:28.703Z,1.90
2022-12-23T22:18:57.298Z,1.70
2022-12-23T22:21:25.944Z,1.80
2022-12-23T22:23:55.023Z,1.83
2022-12-23T22:26:26.284Z,1.90
2022-12-23T22:28:58.489Z,2.40
2022-12-23T22:31:34.889Z,1.67
2022-12-23T22:34:02.618Z,2.07
2022-12-23T22:36:29.875Z,2.00
2022-12-23T22:38:59.831Z,2.23
2022-12-23T22:41:31.239Z,2.00
2022-12-23T22:43:59.450Z,1.93
2022-12-23T22:46:28.643Z,2.00
2022-12-23T22:48:56.566Z,2.00
2022-12-23T22:51:26.518Z,2.30
2022-12-23T22:53:54.522Z,2.07
2022-12-23T22:56:23.368Z,2.30
2022-12-23T22:58:52.709Z,1.90
2022-12-23T23:01:22.593Z,1.87
2022-12-23T23:03:56.934Z,1.50
2022-12-23T23:06:30.377Z,2.10
2022-12-23T23:08:58.359Z,1.87
2022-12-23T23:11:27.050Z,1.80
2022-12-23T23:13:55.740Z,1.97
2022-12-23T23:16:23.730Z,1.70
2022-12-23T23:18:52.544Z,1.47
2022-12-23T23:21:20.207Z,1.70
2022-12-23T23:23:47.420Z,1.50
2022-12-23T23:26:14.780Z,1.20
2022-12-23T23:28:43.081Z,1.70
2022-12-23T23:33:58.850Z,1.70
2022-12-23T23:36:26.194Z,1.50
2022-12-23T23:38:53.331Z,1.63
2022-12-23T23:41:23.283Z,1.50
2022-12-23T23:43:51.158Z,1.20
2022-12-23T23:46:18.475Z,1.40
2022-12-23T23:48:45.635Z,1.50
2022-12-23T23:51:13.050Z,1.50
2022-12-23T23:53:40.664Z,1.33
2022-12-23T23:56:08.551Z,1.30
2022-12-23T23:58:37.306Z,1.70
